Terminal Aerodrome Forecast
Issued by NWS Albany, NY

Home | Current Version | Previous Version | Text Only | Print | Product List | Glossary On
Versions: 1 2 3 4 5 6 7 8 9 10 11 12 13 14 15
000
FTUS41 KALY 190500
TAFPOU
TAF
KPOU 190520Z 1906/2006 12004KT P6SM SKC
     FM190900 VRB03KT P6SM SKC
     FM191500 33010G18KT P6SM SKC
     FM200000 VRB03KT P6SM SKC=

USA.gov is the U.S. government's official web portal to all federal, state and local government web resources and services.